createdAt,value
2018-03-21T00:00:34.245Z,67.00
2018-03-21T00:03:08.637Z,67.40
2018-03-21T00:05:40.317Z,67.10
2018-03-21T00:08:11.676Z,67.60
2018-03-21T00:10:42.464Z,67.50
2018-03-21T00:13:19.346Z,67.40
2018-03-21T00:15:51.436Z,53.80
2018-03-21T00:18:23.267Z,59.40
2018-03-21T00:20:59.026Z,66.20
2018-03-21T00:23:30.465Z,66.30
2018-03-21T00:26:05.777Z,68.30
2018-03-21T00:28:40.243Z,67.10
2018-03-21T00:31:11.206Z,67.80
2018-03-21T00:33:57.767Z,68.30
2018-03-21T00:36:29.937Z,68.50
2018-03-21T00:39:08.057Z,67.30
2018-03-21T00:41:39.197Z,66.00
2018-03-21T00:44:11.156Z,66.20
2018-03-21T00:46:43.457Z,66.20
2018-03-21T00:49:15.176Z,66.90
2018-03-21T00:51:46.356Z,66.60
2018-03-21T00:54:20.465Z,66.90
2018-03-21T00:56:54.475Z,66.60
2018-03-21T00:59:26.765Z,67.60
2018-03-21T01:01:59.427Z,67.50
2018-03-21T01:04:31.245Z,66.50
2018-03-21T01:07:05.058Z,67.00
2018-03-21T01:09:39.764Z,66.80
2018-03-21T01:12:10.827Z,66.90
2018-03-21T01:14:42.054Z,67.90
2018-03-21T01:17:15.767Z,67.30
2018-03-21T01:19:47.622Z,67.30
2018-03-21T01:22:20.307Z,67.30
2018-03-21T01:24:56.567Z,69.10
2018-03-21T01:27:34.296Z,68.60
2018-03-21T01:30:05.835Z,68.60
2018-03-21T01:32:41.868Z,70.00
2018-03-21T01:35:15.916Z,70.00
2018-03-21T01:37:48.146Z,69.50
2018-03-21T01:40:20.516Z,69.70
2018-03-21T01:42:51.267Z,69.70
2018-03-21T01:45:21.785Z,69.60
2018-03-21T01:48:01.126Z,70.20
2018-03-21T01:50:32.506Z,71.50
2018-03-21T01:53:18.798Z,71.80
2018-03-21T01:55:52.356Z,72.10
2018-03-21T01:58:24.226Z,70.70
2018-03-21T02:00:58.855Z,70.60
2018-03-21T02:03:30.307Z,71.10
2018-03-21T02:06:01.025Z,71.30
2018-03-21T02:08:41.790Z,71.60
2018-03-21T02:11:16.427Z,71.70
2018-03-21T02:13:47.876Z,71.30
2018-03-21T02:16:19.216Z,71.60
2018-03-21T02:18:50.876Z,71.80
2018-03-21T02:21:22.765Z,72.30
2018-03-21T02:23:55.107Z,71.50
2018-03-21T02:26:30.655Z,71.60
2018-03-21T02:29:10.705Z,71.80
2018-03-21T02:31:41.536Z,71.70
2018-03-21T02:34:13.085Z,72.00
2018-03-21T02:36:45.495Z,72.40
2018-03-21T02:39:16.917Z,73.10
2018-03-21T02:41:54.405Z,72.50
2018-03-21T02:44:28.006Z,72.50
2018-03-21T02:46:58.802Z,72.50
2018-03-21T02:49:34.907Z,72.90
2018-03-21T02:52:05.936Z,72.60
2018-03-21T02:54:39.825Z,72.60
2018-03-21T02:57:11.697Z,72.80
2018-03-21T02:59:43.847Z,72.80
2018-03-21T03:02:14.910Z,72.60
2018-03-21T03:04:46.847Z,73.10
2018-03-21T03:07:17.780Z,73.20
2018-03-21T03:09:49.677Z,72.90
2018-03-21T03:12:20.846Z,73.50
2018-03-21T03:14:52.565Z,74.10
2018-03-21T03:17:24.796Z,73.30
2018-03-21T03:19:56.908Z,74.00
2018-03-21T03:22:29.176Z,73.40
2018-03-21T03:25:00.896Z,74.00
2018-03-21T03:27:31.956Z,74.50
2018-03-21T03:30:03.726Z,73.90
2018-03-21T03:32:36.297Z,74.00
2018-03-21T03:35:10.445Z,73.80
2018-03-21T03:37:42.916Z,74.40
2018-03-21T03:40:14.745Z,74.20
2018-03-21T03:42:47.016Z,74.70
2018-03-21T03:45:20.816Z,74.60
2018-03-21T03:47:51.237Z,74.70
2018-03-21T03:50:26.310Z,74.70
2018-03-21T03:52:57.455Z,74.70
2018-03-21T03:55:29.425Z,74.60
2018-03-21T03:58:02.985Z,74.50
2018-03-21T04:00:34.336Z,75.20
2018-03-21T04:03:05.725Z,75.40
2018-03-21T04:05:39.509Z,76.20
2018-03-21T04:08:10.926Z,75.90
2018-03-21T04:10:47.405Z,75.40
2018-03-21T04:13:18.436Z,75.80
2018-03-21T04:15:48.666Z,75.10
2018-03-21T04:18:19.825Z,75.00
2018-03-21T04:20:52.896Z,75.20
2018-03-21T04:23:24.956Z,76.00
2018-03-21T04:26:00.516Z,75.40
2018-03-21T04:28:35.026Z,74.80
2018-03-21T04:31:06.275Z,74.80
2018-03-21T04:33:38.236Z,74.20
2018-03-21T04:36:11.726Z,74.70
2018-03-21T04:38:43.927Z,74.70
2018-03-21T04:41:17.286Z,75.60
2018-03-21T04:43:48.668Z,74.70
2018-03-21T04:46:21.927Z,74.70
2018-03-21T04:48:54.652Z,74.70
2018-03-21T04:51:26.806Z,75.10
2018-03-21T04:54:00.836Z,75.00
2018-03-21T04:56:32.836Z,76.20
2018-03-21T04:59:03.886Z,74.90
2018-03-21T05:01:38.515Z,75.10
2018-03-21T05:04:10.326Z,74.50
2018-03-21T05:06:42.446Z,74.20
2018-03-21T05:09:14.956Z,74.60
2018-03-21T05:11:46.675Z,75.00
2018-03-21T05:14:21.184Z,75.30
2018-03-21T05:16:55.926Z,75.40
2018-03-21T05:19:27.265Z,75.80
2018-03-21T05:21:59.746Z,75.70
2018-03-21T05:24:35.522Z,76.00
2018-03-21T05:27:10.805Z,76.20
2018-03-21T05:29:42.696Z,76.00
2018-03-21T05:32:17.756Z,75.40
2018-03-21T05:34:49.204Z,75.50
2018-03-21T05:37:21.547Z,75.00
2018-03-21T05:39:52.377Z,75.50
2018-03-21T05:42:24.445Z,76.50
2018-03-21T05:44:55.376Z,74.80
2018-03-21T05:47:27.066Z,75.30
2018-03-21T05:49:57.866Z,75.30
2018-03-21T05:52:29.836Z,75.80
2018-03-21T05:55:03.220Z,76.00
2018-03-21T05:57:36.627Z,75.50
2018-03-21T06:00:09.618Z,76.80
2018-03-21T06:02:50.696Z,75.80
2018-03-21T06:05:25.505Z,76.10
2018-03-21T06:07:58.496Z,76.10
2018-03-21T06:10:30.680Z,75.50
2018-03-21T06:13:08.675Z,75.20
2018-03-21T06:15:41.585Z,74.70
2018-03-21T06:18:14.955Z,75.30
2018-03-21T06:20:51.936Z,75.80
2018-03-21T06:23:23.995Z,76.00
2018-03-21T06:26:01.855Z,76.00
2018-03-21T06:28:42.486Z,75.30
2018-03-21T06:31:14.365Z,75.00
2018-03-21T06:33:46.476Z,74.90
2018-03-21T06:36:23.156Z,75.00
2018-03-21T06:38:54.186Z,75.90
2018-03-21T06:41:26.196Z,75.80
2018-03-21T06:44:03.266Z,74.80
2018-03-21T06:46:47.686Z,76.00
2018-03-21T06:49:23.346Z,76.40
2018-03-21T06:51:54.742Z,75.60
2018-03-21T06:54:27.336Z,75.60
2018-03-21T06:57:00.076Z,76.00
2018-03-21T06:59:32.346Z,76.40
2018-03-21T07:02:06.734Z,76.30
2018-03-21T07:04:39.406Z,76.50
2018-03-21T07:07:10.690Z,75.60
2018-03-21T07:09:41.035Z,75.60
2018-03-21T07:12:15.805Z,73.50
2018-03-21T07:15:00.966Z,73.10
2018-03-21T07:17:32.886Z,74.10
2018-03-21T07:20:05.835Z,75.70
2018-03-21T07:22:40.146Z,74.80
2018-03-21T07:25:14.465Z,73.90
2018-03-21T07:27:50.936Z,72.30
2018-03-21T07:30:24.636Z,73.90
2018-03-21T07:32:55.576Z,74.00
2018-03-21T07:35:26.855Z,74.60
2018-03-21T07:37:58.480Z,75.40
2018-03-21T07:40:32.305Z,75.10
2018-03-21T07:43:08.245Z,75.30
2018-03-21T07:45:40.184Z,75.20
2018-03-21T07:48:13.687Z,72.70
2018-03-21T07:50:47.418Z,72.90
2018-03-21T07:53:19.956Z,73.50
2018-03-21T07:55:52.425Z,74.10
2018-03-21T07:58:24.194Z,73.30
2018-03-21T08:00:55.777Z,72.70
2018-03-21T08:03:27.505Z,72.30
2018-03-21T08:05:58.438Z,72.30
2018-03-21T08:08:30.505Z,71.90
2018-03-21T08:11:02.871Z,71.50
2018-03-21T08:13:38.821Z,73.00
2018-03-21T08:16:11.709Z,72.30
2018-03-21T08:18:42.996Z,71.70
2018-03-21T08:21:17.860Z,70.20
2018-03-21T08:23:59.814Z,72.50
2018-03-21T08:26:38.809Z,71.10
2018-03-21T08:29:12.726Z,69.50
2018-03-21T08:31:45.085Z,71.60
2018-03-21T08:34:17.066Z,70.00
2018-03-21T08:36:49.527Z,69.00
2018-03-21T08:39:23.945Z,69.60
2018-03-21T08:41:55.536Z,67.30
2018-03-21T08:44:25.888Z,67.40
2018-03-21T08:46:58.136Z,66.40
2018-03-21T08:49:28.836Z,66.20
2018-03-21T08:51:59.866Z,65.10
2018-03-21T08:54:35.106Z,65.50
2018-03-21T08:57:07.476Z,67.70
2018-03-21T08:59:44.346Z,65.60
2018-03-21T09:02:16.156Z,68.50
2018-03-21T09:04:48.376Z,67.10
2018-03-21T09:07:25.264Z,66.50
2018-03-21T09:10:02.137Z,66.10
2018-03-21T09:12:33.406Z,64.50
2018-03-21T09:15:05.129Z,64.10
2018-03-21T09:17:36.576Z,66.10
2018-03-21T09:20:12.232Z,64.90
2018-03-21T09:22:42.877Z,65.00
2018-03-21T09:25:16.587Z,65.00
2018-03-21T09:27:49.086Z,63.10
2018-03-21T09:30:20.786Z,61.70
2018-03-21T09:32:54.465Z,61.70
2018-03-21T09:35:32.340Z,64.30
2018-03-21T09:38:04.198Z,63.20
2018-03-21T09:40:36.136Z,61.30
2018-03-21T09:43:07.377Z,62.70
2018-03-21T09:48:51.565Z,59.90
2018-03-21T09:51:24.116Z,62.30
2018-03-21T09:53:56.106Z,61.80
2018-03-21T09:56:26.536Z,61.90
2018-03-21T09:58:58.974Z,61.70
2018-03-21T10:01:31.226Z,60.20
2018-03-21T10:04:03.206Z,59.90
2018-03-21T10:06:34.277Z,62.20
2018-03-21T10:09:07.525Z,61.40
2018-03-21T10:11:40.931Z,58.70
2018-03-21T10:14:19.868Z,59.40
2018-03-21T10:16:52.215Z,59.50
2018-03-21T10:19:23.156Z,59.30
2018-03-21T10:21:55.157Z,58.70
2018-03-21T10:24:27.596Z,58.60
2018-03-21T10:26:58.764Z,58.20
2018-03-21T10:29:30.426Z,59.20
2018-03-21T10:32:02.045Z,59.10
2018-03-21T10:34:37.245Z,58.00
2018-03-21T10:37:13.233Z,58.70
2018-03-21T10:39:48.672Z,58.00
2018-03-21T10:42:19.922Z,56.70
2018-03-21T10:44:52.115Z,57.80
2018-03-21T10:47:25.442Z,57.00
2018-03-21T10:49:57.652Z,58.10
2018-03-21T10:52:38.778Z,56.80
2018-03-21T10:55:01.513Z,56.90
2018-03-21T10:57:35.213Z,56.30
2018-03-21T11:00:07.762Z,57.00
2018-03-21T11:02:45.883Z,58.60
2018-03-21T11:05:18.162Z,57.10
2018-03-21T11:07:52.663Z,57.70
2018-03-21T11:10:30.761Z,57.90
2018-03-21T11:13:02.917Z,55.20
2018-03-21T11:15:34.894Z,55.70
2018-03-21T11:18:08.683Z,54.60
2018-03-21T11:20:44.136Z,54.70
2018-03-21T11:23:15.685Z,55.50
2018-03-21T11:25:47.536Z,55.10
2018-03-21T11:28:18.116Z,55.20
2018-03-21T11:30:51.474Z,55.40
2018-03-21T11:33:23.636Z,55.20
2018-03-21T11:35:56.865Z,56.50
2018-03-21T11:38:32.056Z,55.40
2018-03-21T11:41:07.548Z,55.50
2018-03-21T11:43:44.485Z,54.70
2018-03-21T11:46:17.898Z,55.80
2018-03-21T11:48:54.776Z,56.30
2018-03-21T11:51:26.776Z,55.00
2018-03-21T11:53:57.366Z,55.30
2018-03-21T11:56:28.232Z,54.20
2018-03-21T11:58:59.545Z,54.50
2018-03-21T12:01:33.656Z,52.10
2018-03-21T12:04:05.411Z,52.00
2018-03-21T12:06:38.186Z,53.40
2018-03-21T12:09:09.236Z,52.40
2018-03-21T12:11:41.085Z,53.00
2018-03-21T12:14:12.536Z,53.80
2018-03-21T12:16:53.845Z,53.90
2018-03-21T12:19:25.676Z,53.90
2018-03-21T12:21:59.876Z,53.80
2018-03-21T12:24:34.916Z,53.10
2018-03-21T12:27:06.486Z,53.30
2018-03-21T12:29:37.837Z,53.60
2018-03-21T12:32:13.286Z,52.80
2018-03-21T12:34:44.865Z,51.70
2018-03-21T12:37:17.295Z,53.00
2018-03-21T12:39:48.536Z,53.20
2018-03-21T12:42:23.565Z,52.90
2018-03-21T12:44:55.024Z,52.40
2018-03-21T12:47:29.028Z,51.00
2018-03-21T12:50:01.479Z,50.70
2018-03-21T12:52:32.336Z,51.30
2018-03-21T12:55:04.114Z,49.00
2018-03-21T12:57:40.358Z,49.50
2018-03-21T13:00:15.606Z,49.10
2018-03-21T13:02:50.926Z,49.20
2018-03-21T13:05:21.894Z,48.70
2018-03-21T13:07:55.866Z,48.80
2018-03-21T13:10:28.329Z,47.90
2018-03-21T13:13:00.125Z,48.10
2018-03-21T13:15:31.170Z,47.50
2018-03-21T13:18:03.562Z,47.90
2018-03-21T13:20:36.300Z,47.30
2018-03-21T13:23:07.856Z,46.20
2018-03-21T13:25:39.405Z,46.40
2018-03-21T13:28:10.748Z,47.20
2018-03-21T13:30:42.737Z,46.50
2018-03-21T13:33:15.026Z,45.50
2018-03-21T13:35:47.157Z,47.00
2018-03-21T13:38:19.224Z,47.00
2018-03-21T13:40:50.277Z,47.20
2018-03-21T13:43:22.565Z,46.30
2018-03-21T13:45:57.874Z,47.20
2018-03-21T13:48:29.517Z,48.00
2018-03-21T13:51:02.817Z,48.60
2018-03-21T13:53:33.786Z,48.70
2018-03-21T13:56:05.116Z,49.50
2018-03-21T13:58:37.001Z,49.60
2018-03-21T14:01:09.377Z,49.30
2018-03-21T14:03:41.606Z,49.10
2018-03-21T14:06:14.186Z,48.50
2018-03-21T14:08:45.048Z,48.60
2018-03-21T14:11:20.277Z,48.90
2018-03-21T14:13:52.055Z,48.30
2018-03-21T14:16:25.419Z,48.70
2018-03-21T14:19:01.575Z,48.40
2018-03-21T14:21:33.124Z,47.60
2018-03-21T14:24:07.375Z,48.10
2018-03-21T14:26:38.795Z,48.10
2018-03-21T14:29:11.576Z,48.30
2018-03-21T14:31:43.737Z,49.40
2018-03-21T14:34:14.915Z,47.30
2018-03-21T14:36:45.145Z,47.40
2018-03-21T14:39:16.455Z,47.70
2018-03-21T14:41:50.943Z,48.60
2018-03-21T14:44:24.775Z,47.30
2018-03-21T14:46:57.465Z,47.20
2018-03-21T14:49:29.428Z,46.60
2018-03-21T14:52:00.855Z,46.70
2018-03-21T14:54:33.025Z,46.80
2018-03-21T14:57:07.535Z,46.70
2018-03-21T14:59:45.585Z,46.60
2018-03-21T15:02:17.404Z,47.20
2018-03-21T15:04:49.317Z,47.50
2018-03-21T15:07:24.217Z,47.60
2018-03-21T15:09:57.125Z,47.40
2018-03-21T15:12:31.605Z,47.00
2018-03-21T15:15:03.993Z,47.90
2018-03-21T15:17:39.330Z,48.70
2018-03-21T15:20:10.366Z,48.30
2018-03-21T15:22:42.937Z,47.10
2018-03-21T15:25:15.166Z,47.30
2018-03-21T15:27:49.459Z,48.30
2018-03-21T15:30:23.115Z,47.60
2018-03-21T15:32:55.226Z,45.90
2018-03-21T15:35:27.807Z,46.30
2018-03-21T15:37:58.195Z,46.50
2018-03-21T15:40:29.794Z,46.90
2018-03-21T15:43:01.617Z,47.00
2018-03-21T15:45:37.367Z,47.40
2018-03-21T15:48:09.026Z,47.10
2018-03-21T15:50:45.375Z,45.90
2018-03-21T15:53:16.905Z,46.30
2018-03-21T15:55:52.259Z,46.70
2018-03-21T15:58:24.601Z,46.60
2018-03-21T16:00:59.256Z,46.00
2018-03-21T16:03:31.626Z,46.40
2018-03-21T16:06:03.795Z,46.60
2018-03-21T16:08:36.925Z,46.60
2018-03-21T16:11:13.261Z,47.20
2018-03-21T16:13:45.514Z,47.10
2018-03-21T16:16:18.898Z,47.90
2018-03-21T16:18:54.358Z,48.30
2018-03-21T16:21:27.445Z,48.30
2018-03-21T16:23:59.005Z,48.20
2018-03-21T16:26:31.284Z,47.90
2018-03-21T16:29:04.046Z,49.10
2018-03-21T16:31:36.417Z,48.70
2018-03-21T16:34:09.515Z,48.60
2018-03-21T16:36:41.685Z,48.80
2018-03-21T16:39:18.662Z,48.20
2018-03-21T16:41:51.375Z,48.20
2018-03-21T16:44:24.774Z,48.20
2018-03-21T16:46:55.695Z,48.20
2018-03-21T16:49:31.834Z,48.30
2018-03-21T16:52:03.595Z,48.60
2018-03-21T16:54:35.755Z,48.10
2018-03-21T16:57:07.722Z,48.40
2018-03-21T16:59:40.627Z,48.60
2018-03-21T17:02:13.586Z,49.10
2018-03-21T17:04:54.758Z,49.30
2018-03-21T17:07:27.698Z,49.00
2018-03-21T17:10:06.817Z,49.00
2018-03-21T17:12:41.225Z,49.10
2018-03-21T17:15:13.158Z,49.10
2018-03-21T17:17:44.235Z,49.00
2018-03-21T17:20:20.607Z,49.10
2018-03-21T17:22:52.737Z,48.70
2018-03-21T17:25:31.554Z,49.60
2018-03-21T17:28:03.624Z,49.40
2018-03-21T17:30:35.377Z,49.60
2018-03-21T17:33:06.625Z,49.20
2018-03-21T17:35:41.246Z,50.50
2018-03-21T17:38:13.006Z,51.10
2018-03-21T17:40:47.826Z,51.50
2018-03-21T17:43:25.854Z,52.10
2018-03-21T17:45:57.597Z,52.50
2018-03-21T17:48:28.945Z,53.00
2018-03-21T17:51:00.797Z,52.90
2018-03-21T17:53:31.913Z,51.50
2018-03-21T17:56:03.700Z,52.10
2018-03-21T17:58:37.906Z,52.80
2018-03-21T18:01:14.955Z,53.30
2018-03-21T18:03:48.915Z,52.60
2018-03-21T18:06:20.663Z,52.80
2018-03-21T18:08:52.846Z,52.60
2018-03-21T18:11:35.425Z,52.30
2018-03-21T18:14:14.945Z,52.30
2018-03-21T18:16:47.357Z,52.30
2018-03-21T18:19:19.314Z,52.60
2018-03-21T18:21:50.796Z,52.60
2018-03-21T18:24:25.711Z,52.30
2018-03-21T18:27:04.426Z,52.50
2018-03-21T18:29:39.573Z,52.30
2018-03-21T18:32:12.354Z,52.60
2018-03-21T18:34:46.236Z,52.70
2018-03-21T18:37:23.414Z,52.90
2018-03-21T18:39:55.075Z,52.60
2018-03-21T18:42:27.446Z,52.70
2018-03-21T18:44:59.405Z,52.70
2018-03-21T18:47:30.485Z,53.00
2018-03-21T18:50:01.695Z,51.90
2018-03-21T18:52:33.456Z,52.00
2018-03-21T18:55:15.237Z,51.50
2018-03-21T18:57:47.445Z,52.10
2018-03-21T19:00:19.776Z,51.20
2018-03-21T19:02:52.085Z,51.40
2018-03-21T19:05:23.977Z,51.50
2018-03-21T19:07:57.307Z,51.40
2018-03-21T19:10:30.596Z,51.50
2018-03-21T19:13:05.115Z,52.30
2018-03-21T19:15:40.145Z,52.30
2018-03-21T19:18:13.848Z,52.10
2018-03-21T19:20:47.935Z,52.60
2018-03-21T19:23:20.450Z,52.30
2018-03-21T19:25:52.404Z,52.10
2018-03-21T19:28:28.565Z,52.50
2018-03-21T19:31:01.346Z,52.00
2018-03-21T19:33:37.405Z,52.20
2018-03-21T19:36:12.234Z,51.70
2018-03-21T19:38:43.884Z,51.20
2018-03-21T19:41:20.245Z,52.20
2018-03-21T19:43:53.235Z,51.40
2018-03-21T19:46:25.234Z,51.50
2018-03-21T19:48:56.279Z,51.50
2018-03-21T19:51:30.935Z,51.40
2018-03-21T19:54:09.500Z,51.50
2018-03-21T19:56:43.287Z,51.40
2018-03-21T19:59:16.275Z,51.40
2018-03-21T20:01:54.164Z,51.20
2018-03-21T20:04:24.185Z,51.30
2018-03-21T20:06:56.556Z,51.70
2018-03-21T20:09:29.945Z,51.70
2018-03-21T20:12:00.978Z,51.70
2018-03-21T20:14:34.326Z,51.90
2018-03-21T20:17:08.810Z,51.90
2018-03-21T20:19:42.207Z,51.90
2018-03-21T20:22:13.676Z,51.90
2018-03-21T20:24:48.486Z,52.30
2018-03-21T20:27:21.685Z,51.40
2018-03-21T20:29:53.675Z,52.10
2018-03-21T20:32:26.115Z,52.40
2018-03-21T20:35:01.048Z,52.50
2018-03-21T20:37:35.155Z,52.10
2018-03-21T20:40:09.790Z,52.30
2018-03-21T20:42:44.816Z,52.30
2018-03-21T20:45:17.486Z,52.30
2018-03-21T20:47:56.618Z,52.70
2018-03-21T20:50:31.246Z,52.80
2018-03-21T20:53:02.924Z,53.00
2018-03-21T20:55:35.205Z,53.30
2018-03-21T20:58:06.975Z,53.60
2018-03-21T21:00:43.801Z,53.80
2018-03-21T21:03:15.076Z,53.60
2018-03-21T21:05:51.235Z,53.90
2018-03-21T21:08:24.326Z,54.20
2018-03-21T21:10:55.876Z,54.50
2018-03-21T21:13:27.295Z,54.80
2018-03-21T21:16:01.406Z,55.00
2018-03-21T21:18:34.956Z,55.00
2018-03-21T21:21:15.945Z,55.50
2018-03-21T21:23:51.974Z,55.50
2018-03-21T21:26:24.866Z,55.50
2018-03-21T21:28:56.066Z,55.60
2018-03-21T21:31:28.546Z,55.70
2018-03-21T21:34:02.356Z,45.00
2018-03-21T21:36:34.926Z,43.70
2018-03-21T21:39:07.196Z,42.10
2018-03-21T21:41:38.945Z,44.60
2018-03-21T21:44:13.875Z,46.80
2018-03-21T21:46:45.535Z,45.00
2018-03-21T21:49:17.806Z,50.30
2018-03-21T21:51:50.896Z,47.80
2018-03-21T21:54:24.956Z,49.00
2018-03-21T21:56:56.455Z,45.00
2018-03-21T21:59:28.526Z,42.30
2018-03-21T22:02:00.586Z,42.50
2018-03-21T22:04:36.945Z,42.50
2018-03-21T22:07:13.206Z,42.50
2018-03-21T22:09:45.167Z,42.60
2018-03-21T22:12:24.956Z,42.60
2018-03-21T22:14:57.826Z,42.60
2018-03-21T22:17:31.979Z,42.30
2018-03-21T22:20:12.366Z,42.60
2018-03-21T22:22:43.985Z,42.50
2018-03-21T22:25:16.315Z,42.70
2018-03-21T22:27:48.665Z,43.00
2018-03-21T22:30:23.594Z,42.70
2018-03-21T22:32:55.276Z,45.10
2018-03-21T22:35:27.525Z,45.80
2018-03-21T22:38:05.327Z,46.40
2018-03-21T22:40:36.706Z,46.40
2018-03-21T22:43:09.005Z,45.10
2018-03-21T22:45:39.387Z,44.60
2018-03-21T22:48:11.556Z,44.80
2018-03-21T22:50:42.466Z,44.60
2018-03-21T22:53:12.895Z,45.00
2018-03-21T22:55:44.269Z,46.50
2018-03-21T22:58:15.964Z,47.60
2018-03-21T23:00:47.245Z,48.10
2018-03-21T23:03:17.495Z,48.10
2018-03-21T23:05:53.216Z,48.20
2018-03-21T23:08:25.075Z,47.90
2018-03-21T23:10:57.138Z,48.20
2018-03-21T23:13:29.236Z,44.70
2018-03-21T23:16:00.366Z,44.10
2018-03-21T23:18:31.926Z,44.30
2018-03-21T23:21:05.597Z,44.50
2018-03-21T23:23:37.176Z,44.80
2018-03-21T23:26:11.267Z,45.00
2018-03-21T23:28:45.026Z,45.20
2018-03-21T23:31:21.925Z,44.60
2018-03-21T23:33:52.966Z,44.50
2018-03-21T23:36:23.716Z,44.50
2018-03-21T23:38:58.537Z,44.70
2018-03-21T23:41:30.205Z,44.90
2018-03-21T23:44:09.437Z,45.40
2018-03-21T23:46:44.271Z,45.10
2018-03-21T23:49:18.407Z,45.50
2018-03-21T23:51:49.756Z,45.80
2018-03-21T23:54:24.447Z,45.70
2018-03-21T23:57:00.516Z,45.70
2018-03-21T23:59:33.496Z,45.80
